Time;durP1;ratioP1;P1;durP2;ratioP2;P2;SDS_P1;SDS_P2;PMS_P1;PMS_P2;Temp;Humidity;BMP_temperature;BMP_pressure;BME280_temperature;BME280_humidity;BME280_pressure;Samples;Min_cycle;Max_cycle;Signal;HPM_P1;HPM_P2
2022/10/17 00:01:05;;;;;;;1.10;0.50;;;14.00;99.90;;;;;;5068829;28;20434;-83
2022/10/17 00:03:31;;;;;;;2.65;0.60;;;14.10;99.90;;;;;;5050768;28;20116;-77
2022/10/17 00:05:57;;;;;;;1.67;0.63;;;14.20;99.90;;;;;;5067836;28;20032;-83
2022/10/17 00:08:22;;;;;;;1.63;0.55;;;14.20;99.90;;;;;;5067474;28;20085;-79
2022/10/17 00:11:04;;;;;;;1.90;0.70;;;14.20;99.90;;;;;;5049997;28;20055;-78
2022/10/17 00:13:31;;;;;;;1.70;0.70;;;14.30;99.90;;;;;;5050892;28;20131;-77
2022/10/17 00:15:57;;;;;;;1.73;0.60;;;14.20;99.90;;;;;;5035296;28;20450;-79
2022/10/17 00:18:23;;;;;;;1.30;0.73;;;14.30;99.90;;;;;;5067574;28;20115;-83
2022/10/17 00:20:49;;;;;;;1.50;0.60;;;14.30;99.90;;;;;;5049976;28;20033;-76
2022/10/17 00:23:14;;;;;;;1.20;0.50;;;14.30;99.90;;;;;;5048409;28;20056;-81
2022/10/17 00:25:40;;;;;;;2.03;0.60;;;14.30;99.90;;;;;;5068632;28;20054;-77
2022/10/17 00:28:12;;;;;;;1.55;0.50;;;14.30;99.90;;;;;;5067560;28;20396;-81
2022/10/17 00:30:38;;;;;;;1.33;0.60;;;14.30;99.90;;;;;;5066136;28;20532;-78
2022/10/17 00:33:04;;;;;;;1.55;0.50;;;14.50;99.90;;;;;;5034588;28;20467;-77
2022/10/17 00:35:31;;;;;;;3.25;0.55;;;14.40;99.90;;;;;;5068368;28;20059;-78
2022/10/17 00:37:57;;;;;;;2.67;0.80;;;14.50;99.90;;;;;;5049488;28;20132;-78
2022/10/17 00:40:22;;;;;;;2.10;0.60;;;14.50;99.90;;;;;;5066847;28;20501;-86
2022/10/17 00:42:50;;;;;;;1.42;0.60;;;14.60;99.90;;;;;;5068401;28;20108;-78
2022/10/17 00:45:25;;;;;;;1.70;0.70;;;14.50;99.90;;;;;;5033119;28;20044;-79
2022/10/17 00:47:58;;;;;;;1.40;0.60;;;14.50;99.90;;;;;;5034194;28;20037;-80
2022/10/17 00:50:24;;;;;;;1.77;0.70;;;14.50;99.90;;;;;;5032904;28;20028;-78
2022/10/17 00:52:51;;;;;;;1.83;0.70;;;14.60;99.90;;;;;;5054495;28;20028;-76
2022/10/17 00:55:28;;;;;;;1.88;0.70;;;14.60;99.90;;;;;;5048593;28;20138;-77
2022/10/17 00:57:55;;;;;;;1.92;0.60;;;14.60;99.90;;;;;;5049828;28;20067;-81
2022/10/17 01:00:21;;;;;;;1.70;0.60;;;14.60;99.90;;;;;;5066739;28;20119;-86
2022/10/17 01:02:47;;;;;;;1.77;0.60;;;14.70;99.90;;;;;;5050288;28;20029;-77
2022/10/17 01:05:14;;;;;;;1.60;0.70;;;14.60;99.90;;;;;;5066116;28;20063;-77
2022/10/17 01:07:42;;;;;;;1.90;0.60;;;14.50;99.90;;;;;;5066399;28;20024;-79
2022/10/17 01:10:09;;;;;;;3.33;0.60;;;14.60;99.90;;;;;;5049571;28;20040;-83
2022/10/17 01:12:38;;;;;;;1.63;0.60;;;14.70;99.90;;;;;;5064958;28;20572;-77
2022/10/17 01:15:22;;;;;;;1.30;0.60;;;14.70;99.90;;;;;;5050310;28;20442;-86
2022/10/17 01:18:26;;;;;;;2.22;0.70;;;14.70;99.90;;;;;;5033192;28;20074;-80
2022/10/17 01:21:02;;;;;;;1.90;0.70;;;14.60;99.90;;;;;;5057009;28;20035;-81
2022/10/17 01:23:36;;;;;;;1.70;0.52;;;14.60;99.90;;;;;;5065878;28;20036;-76
2022/10/17 01:26:35;;;;;;;1.40;0.50;;;14.60;99.90;;;;;;5066967;28;20078;-86
2022/10/17 01:29:20;;;;;;;0.88;0.50;;;14.50;99.90;;;;;;5048036;28;20035;-83
2022/10/17 01:32:17;;;;;;;1.38;0.52;;;14.60;99.90;;;;;;5050208;28;20027;-78
2022/10/17 01:34:55;;;;;;;2.30;0.60;;;14.60;99.90;;;;;;5034140;28;20020;-77
2022/10/17 01:37:46;;;;;;;2.60;0.60;;;14.50;99.90;;;;;;5029140;28;20086;-83
2022/10/17 01:40:24;;;;;;;1.20;0.50;;;14.60;99.90;;;;;;5046680;28;20120;-85
2022/10/17 01:43:15;;;;;;;1.50;0.70;;;14.70;99.90;;;;;;5033209;28;21244;-84
2022/10/17 01:45:59;;;;;;;1.20;0.60;;;14.70;99.90;;;;;;5066046;28;20025;-82
2022/10/17 01:48:32;;;;;;;2.35;0.60;;;14.70;99.90;;;;;;5049208;28;20047;-78
2022/10/17 01:51:04;;;;;;;1.83;0.75;;;14.70;99.90;;;;;;5048910;28;20089;-86
2022/10/17 01:53:38;;;;;;;2.03;0.80;;;14.60;99.90;;;;;;5048811;28;20032;-80
2022/10/17 01:56:07;;;;;;;1.90;0.90;;;14.70;99.90;;;;;;5064708;28;20031;-77
2022/10/17 01:58:39;;;;;;;2.73;0.83;;;14.80;99.90;;;;;;5027270;28;20028;-78
2022/10/17 02:01:08;;;;;;;2.03;0.70;;;14.80;99.90;;;;;;5065773;28;20275;-82
2022/10/17 02:03:35;;;;;;;2.35;0.90;;;14.70;99.90;;;;;;5049036;28;20043;-77
2022/10/17 02:06:01;;;;;;;2.25;1.08;;;14.80;99.90;;;;;;5067603;28;20029;-77
2022/10/17 02:08:39;;;;;;;1.90;0.70;;;14.70;99.90;;;;;;5066735;28;20024;-85
2022/10/17 02:11:11;;;;;;;1.70;0.80;;;14.70;99.90;;;;;;5065976;28;20029;-86
2022/10/17 02:13:55;;;;;;;1.90;1.02;;;14.70;99.90;;;;;;5049498;28;20049;-86
2022/10/17 02:16:21;;;;;;;2.67;0.80;;;14.70;99.90;;;;;;5065154;28;20564;-81
2022/10/17 02:18:52;;;;;;;1.92;0.85;;;14.80;99.90;;;;;;5066628;28;20092;-81
2022/10/17 02:21:27;;;;;;;1.58;0.77;;;14.70;99.90;;;;;;5064617;28;20033;-85
2022/10/17 02:24:28;;;;;;;1.40;0.80;;;14.70;99.90;;;;;;5046711;28;20021;-77
2022/10/17 02:27:05;;;;;;;1.67;0.85;;;14.70;99.90;;;;;;5027176;28;20035;-85
2022/10/17 02:29:37;;;;;;;1.85;0.90;;;14.70;99.90;;;;;;5049328;28;20421;-82
2022/10/17 02:32:07;;;;;;;2.03;0.80;;;14.70;99.90;;;;;;5036550;28;20048;-78
2022/10/17 02:34:45;;;;;;;1.48;0.70;;;14.70;99.90;;;;;;5069169;28;20056;-78
2022/10/17 02:37:15;;;;;;;1.55;0.70;;;14.60;99.90;;;;;;5067525;28;20025;-81
2022/10/17 02:39:42;;;;;;;1.80;0.90;;;14.60;99.90;;;;;;5070678;28;20025;-79
2022/10/17 02:42:12;;;;;;;1.73;1.00;;;14.60;99.90;;;;;;5052795;28;20413;-77
2022/10/17 02:44:41;;;;;;;1.80;0.82;;;14.60;99.90;;;;;;5069687;28;20319;-77
2022/10/17 02:47:35;;;;;;;1.93;1.00;;;14.50;99.90;;;;;;5069423;28;20028;-82
2022/10/17 02:50:01;;;;;;;1.52;0.75;;;14.60;99.90;;;;;;5052493;28;20036;-76
2022/10/17 02:52:49;;;;;;;1.52;0.77;;;14.60;99.90;;;;;;5070110;28;20016;-77
2022/10/17 02:55:24;;;;;;;2.38;1.15;;;14.60;99.90;;;;;;5049842;28;20493;-80
2022/10/17 02:57:55;;;;;;;2.15;1.30;;;14.70;99.90;;;;;;5051859;28;20040;-76
2022/10/17 03:00:22;;;;;;;2.10;0.90;;;14.70;99.90;;;;;;5035320;28;20380;-77
2022/10/17 03:02:50;;;;;;;2.97;1.40;;;14.70;99.90;;;;;;5052837;28;20027;-83
2022/10/17 03:05:20;;;;;;;1.83;0.93;;;14.70;99.90;;;;;;5052753;28;20020;-78
2022/10/17 03:07:46;;;;;;;2.00;1.20;;;14.80;99.90;;;;;;5070264;28;20024;-77
2022/10/17 03:10:12;;;;;;;1.95;1.10;;;14.70;99.90;;;;;;5051442;28;20538;-78
2022/10/17 03:12:38;;;;;;;1.65;0.98;;;14.70;99.90;;;;;;5051923;28;20136;-79
2022/10/17 03:15:04;;;;;;;2.33;1.42;;;14.80;99.90;;;;;;5051837;28;20062;-82
2022/10/17 03:17:31;;;;;;;2.58;1.42;;;14.70;99.90;;;;;;5051426;28;20024;-86
2022/10/17 03:19:57;;;;;;;2.75;1.30;;;14.70;99.90;;;;;;5052339;28;20060;-81
2022/10/17 03:22:23;;;;;;;2.63;1.23;;;14.70;99.90;;;;;;5050662;28;20747;-85
2022/10/17 03:24:49;;;;;;;2.55;1.30;;;14.70;99.90;;;;;;5051283;28;20119;-77
2022/10/17 03:27:15;;;;;;;2.58;1.15;;;14.70;99.90;;;;;;5050859;28;20029;-80
2022/10/17 03:29:40;;;;;;;2.13;1.17;;;14.70;99.90;;;;;;5050454;28;20090;-79
2022/10/17 03:32:08;;;;;;;2.55;1.27;;;14.70;99.90;;;;;;5034957;28;20020;-76
2022/10/17 03:34:35;;;;;;;2.88;1.20;;;14.80;99.90;;;;;;5035602;28;20033;-78
2022/10/17 03:37:01;;;;;;;2.55;1.30;;;14.70;99.90;;;;;;5067335;28;20032;-78
2022/10/17 03:39:28;;;;;;;2.00;1.13;;;14.80;99.90;;;;;;5035131;28;20119;-83
2022/10/17 03:41:53;;;;;;;2.25;1.27;;;14.80;99.90;;;;;;5051638;28;20112;-80
2022/10/17 03:44:19;;;;;;;2.47;1.08;;;14.70;99.90;;;;;;5051074;28;20062;-78
2022/10/17 03:46:45;;;;;;;2.30;1.35;;;14.80;99.90;;;;;;5069333;28;20027;-78
2022/10/17 03:49:10;;;;;;;2.45;1.27;;;14.70;99.90;;;;;;5050761;28;20036;-84
2022/10/17 03:51:36;;;;;;;2.13;1.33;;;14.80;99.90;;;;;;5051616;28;20025;-78
2022/10/17 03:54:07;;;;;;;2.35;0.93;;;14.80;99.90;;;;;;5051776;28;20033;-81
2022/10/17 03:56:33;;;;;;;2.28;1.55;;;14.80;99.90;;;;;;5050218;28;20027;-81
2022/10/17 03:59:02;;;;;;;2.60;1.50;;;14.90;99.90;;;;;;5051634;28;20440;-86
2022/10/17 04:01:31;;;;;;;2.53;1.45;;;14.90;99.90;;;;;;5050114;28;20179;-85
2022/10/17 04:03:56;;;;;;;3.05;1.38;;;14.90;99.90;;;;;;5051245;28;20256;-81
2022/10/17 04:06:25;;;;;;;4.10;1.77;;;14.90;99.90;;;;;;5050839;28;20452;-77
2022/10/17 04:08:51;;;;;;;1.98;1.02;;;14.80;99.90;;;;;;5033333;28;20067;-78
2022/10/17 04:11:22;;;;;;;2.20;1.20;;;14.80;99.90;;;;;;5050323;28;20032;-76
2022/10/17 04:13:53;;;;;;;3.30;1.55;;;14.80;99.90;;;;;;5050836;28;20025;-80
2022/10/17 04:16:19;;;;;;;2.47;1.58;;;14.80;99.90;;;;;;5050542;28;20361;-78
2022/10/17 04:18:56;;;;;;;3.03;1.58;;;14.70;99.90;;;;;;5050719;28;20054;-80
2022/10/17 04:21:26;;;;;;;2.28;1.65;;;14.80;99.90;;;;;;5049246;28;20166;-85
2022/10/17 04:23:56;;;;;;;2.60;1.30;;;14.80;99.90;;;;;;5067639;28;20036;-86
2022/10/17 04:26:39;;;;;;;3.47;1.50;;;14.80;99.90;;;;;;5067209;28;20086;-78
2022/10/17 04:29:04;;;;;;;1.73;1.13;;;14.80;99.90;;;;;;5064725;28;20476;-84
2022/10/17 04:31:30;;;;;;;2.80;1.40;;;14.80;99.90;;;;;;5049840;28;20028;-79
2022/10/17 04:34:15;;;;;;;1.80;0.95;;;14.80;99.90;;;;;;5050211;28;20025;-77
2022/10/17 04:36:41;;;;;;;2.42;1.20;;;14.80;99.90;;;;;;5050816;28;20020;-77
2022/10/17 04:39:07;;;;;;;3.05;1.58;;;14.90;99.90;;;;;;5066984;28;20028;-82
2022/10/17 04:41:34;;;;;;;1.95;1.27;;;14.90;99.90;;;;;;5034177;28;20154;-84
2022/10/17 04:44:01;;;;;;;2.70;1.50;;;14.90;99.90;;;;;;5050499;28;20021;-84
2022/10/17 04:46:28;;;;;;;2.20;1.17;;;14.80;99.90;;;;;;5033789;28;20507;-77
2022/10/17 04:48:53;;;;;;;2.22;1.20;;;14.90;99.90;;;;;;5034181;28;20033;-78
2022/10/17 04:51:19;;;;;;;2.28;1.63;;;14.90;99.90;;;;;;5048295;28;20029;-84
2022/10/17 04:54:11;;;;;;;1.90;1.15;;;14.90;99.90;;;;;;5034333;28;20045;-77
2022/10/17 04:56:40;;;;;;;3.10;1.73;;;15.00;99.90;;;;;;5033631;28;20024;-84
2022/10/17 04:59:06;;;;;;;2.30;1.60;;;15.00;99.90;;;;;;5050089;28;20055;-76
2022/10/17 05:01:32;;;;;;;1.95;1.45;;;15.10;99.90;;;;;;5050522;28;20036;-77
2022/10/17 05:03:58;;;;;;;2.15;1.80;;;15.00;99.90;;;;;;5066501;28;20028;-78
2022/10/17 05:06:27;;;;;;;2.88;1.45;;;15.00;99.90;;;;;;5049502;28;20035;-80
2022/10/17 05:09:14;;;;;;;3.10;1.38;;;15.00;99.90;;;;;;5049489;28;20032;-83
2022/10/17 05:11:42;;;;;;;2.17;1.35;;;15.00;99.90;;;;;;5049100;28;20416;-78
2022/10/17 05:14:08;;;;;;;2.08;0.98;;;15.00;99.90;;;;;;5046911;28;20111;-77
2022/10/17 05:16:34;;;;;;;2.00;1.20;;;14.90;99.90;;;;;;5048409;28;20027;-85
2022/10/17 05:19:01;;;;;;;2.60;1.23;;;14.90;99.90;;;;;;5049678;28;20369;-81
2022/10/17 05:21:31;;;;;;;2.78;1.35;;;14.80;99.90;;;;;;5033623;28;20040;-80
2022/10/17 05:23:58;;;;;;;3.10;1.15;;;14.80;99.90;;;;;;5048427;28;20404;-77
2022/10/17 05:26:24;;;;;;;2.78;1.30;;;14.80;99.90;;;;;;5031442;28;20460;-84
2022/10/17 05:28:51;;;;;;;2.50;1.45;;;14.80;99.90;;;;;;5049787;28;20021;-78
2022/10/17 05:31:19;;;;;;;2.38;1.27;;;14.80;99.90;;;;;;5048945;28;20094;-85
2022/10/17 05:33:45;;;;;;;3.40;1.40;;;14.70;99.90;;;;;;5033023;28;20024;-78
2022/10/17 05:36:11;;;;;;;1.95;0.88;;;14.70;99.90;;;;;;5065915;28;20025;-78
2022/10/17 05:38:38;;;;;;;2.15;1.30;;;14.70;99.90;;;;;;5050083;28;20082;-82
2022/10/17 05:41:05;;;;;;;2.05;1.00;;;14.60;99.90;;;;;;5048288;28;20039;-85
2022/10/17 05:43:32;;;;;;;2.33;1.20;;;14.50;99.90;;;;;;5048943;28;20123;-84
2022/10/17 05:45:58;;;;;;;2.10;1.23;;;14.60;99.90;;;;;;5050151;28;20020;-84
2022/10/17 05:48:24;;;;;;;2.70;1.63;;;14.70;99.90;;;;;;5048557;28;20039;-85
2022/10/17 05:51:00;;;;;;;2.50;1.30;;;14.60;99.90;;;;;;5032997;28;20107;-84
2022/10/17 05:53:29;;;;;;;2.42;1.30;;;14.70;99.90;;;;;;5044819;28;20025;-82
2022/10/17 05:55:57;;;;;;;2.08;1.27;;;14.70;99.90;;;;;;5032325;28;20362;-77
2022/10/17 05:58:23;;;;;;;3.63;0.93;;;14.60;99.90;;;;;;5048823;28;20025;-76
2022/10/17 06:00:56;;;;;;;;;;;14.70;99.90;;;;;;5034235;28;20032;-81
2022/10/17 06:03:22;;;;;;;2.85;1.10;;;14.70;99.90;;;;;;5048864;28;19913;-85
2022/10/17 06:05:48;;;;;;;3.15;0.82;;;14.60;99.90;;;;;;5051970;28;20124;-77
2022/10/17 06:08:13;;;;;;;2.28;0.85;;;14.70;99.90;;;;;;5052666;28;20027;-77
2022/10/17 06:10:39;;;;;;;1.60;0.80;;;14.70;99.90;;;;;;5052636;28;20032;-81
2022/10/17 06:13:05;;;;;;;2.13;0.90;;;14.80;99.90;;;;;;5052583;28;20032;-79
2022/10/17 06:15:30;;;;;;;2.05;1.10;;;14.80;99.90;;;;;;5052015;28;20029;-83
2022/10/17 06:18:01;;;;;;;2.15;0.90;;;14.90;99.90;;;;;;5052928;28;20506;-84
2022/10/17 06:20:26;;;;;;;2.28;1.10;;;14.90;99.90;;;;;;5051625;28;20176;-76
2022/10/17 06:22:52;;;;;;;2.10;1.15;;;15.00;99.90;;;;;;5035332;28;20021;-81
2022/10/17 06:25:30;;;;;;;2.53;1.08;;;15.00;99.90;;;;;;5050206;28;20039;-82
2022/10/17 06:27:56;;;;;;;3.05;1.05;;;15.00;99.90;;;;;;5035109;28;20032;-76
2022/10/17 06:30:22;;;;;;;2.30;1.15;;;15.00;99.90;;;;;;5050437;28;20189;-77
2022/10/17 06:32:48;;;;;;;3.22;1.30;;;15.10;99.90;;;;;;5069204;28;20016;-84
2022/10/17 06:35:14;;;;;;;1.52;0.95;;;15.10;99.90;;;;;;5052072;28;20024;-81
2022/10/17 06:37:40;;;;;;;2.80;1.10;;;15.20;99.90;;;;;;5052355;28;20447;-85
2022/10/17 06:40:10;;;;;;;1.85;1.30;;;15.30;99.90;;;;;;5068377;28;20035;-82
2022/10/17 06:42:38;;;;;;;2.50;1.20;;;15.30;99.90;;;;;;5052572;28;20021;-86
2022/10/17 06:45:21;;;;;;;2.00;1.33;;;15.50;99.90;;;;;;5052571;28;20028;-83
2022/10/17 06:48:07;;;;;;;2.15;0.95;;;15.40;99.90;;;;;;5055934;28;20531;-84
2022/10/17 06:50:41;;;;;;;2.60;1.00;;;15.50;99.90;;;;;;5052023;28;20059;-85
2022/10/17 06:53:14;;;;;;;3.10;1.00;;;15.60;99.90;;;;;;5051463;28;20021;-82
2022/10/17 06:56:05;;;;;;;;;;;15.50;99.90;;;;;;5049639;28;20024;-80
2022/10/17 06:58:51;;;;;;;2.17;1.10;;;15.60;99.90;;;;;;5048020;28;19908;-77
2022/10/17 07:01:33;;;;;;;1.70;1.00;;;15.60;99.90;;;;;;5070236;28;20060;-86
2022/10/17 07:04:01;;;;;;;2.08;1.30;;;15.70;99.90;;;;;;5052332;28;20443;-80
2022/10/17 07:06:28;;;;;;;1.92;1.10;;;15.60;99.90;;;;;;5032933;28;20033;-76
2022/10/17 07:08:55;;;;;;;2.72;1.27;;;15.70;99.90;;;;;;5051344;28;20060;-77
2022/10/17 07:11:22;;;;;;;1.90;1.10;;;15.70;99.90;;;;;;5051120;28;20087;-80
2022/10/17 07:13:50;;;;;;;2.10;1.05;;;15.80;99.90;;;;;;5051610;28;20032;-76
2022/10/17 07:16:16;;;;;;;1.50;0.90;;;15.80;99.90;;;;;;5050753;28;20070;-78
2022/10/17 07:18:47;;;;;;;2.00;1.00;;;15.80;99.90;;;;;;5050903;28;20426;-81
2022/10/17 07:21:15;;;;;;;1.52;1.00;;;15.90;99.90;;;;;;5048185;28;20017;-84
2022/10/17 07:23:40;;;;;;;2.50;1.23;;;16.00;99.90;;;;;;5068869;28;20082;-79
2022/10/17 07:26:09;;;;;;;3.30;1.08;;;16.00;99.90;;;;;;5069790;28;20028;-78
2022/10/17 07:28:38;;;;;;;3.03;1.35;;;16.10;99.90;;;;;;5067904;28;20119;-79
2022/10/17 07:31:16;;;;;;;2.75;0.98;;;16.10;99.90;;;;;;5050519;28;20028;-76
2022/10/17 07:33:43;;;;;;;2.33;1.00;;;16.20;99.90;;;;;;5068100;28;20028;-78
2022/10/17 07:36:09;;;;;;;1.60;1.00;;;16.30;99.90;;;;;;5049788;28;20044;-76
2022/10/17 07:38:35;;;;;;;2.50;1.20;;;16.40;99.90;;;;;;5049332;28;20921;-84
2022/10/17 07:41:03;;;;;;;2.20;1.00;;;16.50;99.90;;;;;;5067523;28;20107;-76
2022/10/17 07:43:29;;;;;;;1.35;0.68;;;16.60;99.90;;;;;;5049136;28;20089;-76
2022/10/17 07:45:55;;;;;;;1.77;0.98;;;16.70;99.90;;;;;;5050765;28;20052;-77
2022/10/17 07:48:22;;;;;;;1.67;0.90;;;16.70;99.90;;;;;;5033401;28;20102;-77
2022/10/17 07:50:48;;;;;;;2.38;1.00;;;16.80;99.90;;;;;;5051336;28;20039;-79
2022/10/17 07:53:14;;;;;;;1.70;0.63;;;16.70;99.90;;;;;;5049788;28;20373;-78
2022/10/17 07:55:41;;;;;;;2.92;1.05;;;16.80;99.90;;;;;;5067303;28;20028;-79
2022/10/17 07:58:07;;;;;;;2.22;1.08;;;16.80;99.90;;;;;;5050692;28;20392;-78
2022/10/17 08:00:34;;;;;;;2.20;0.90;;;16.90;99.90;;;;;;5050243;28;20103;-84
2022/10/17 08:02:59;;;;;;;2.00;0.90;;;16.90;99.90;;;;;;5049480;28;20093;-77
2022/10/17 08:05:25;;;;;;;1.25;0.60;;;16.90;99.90;;;;;;5047955;28;20472;-82
2022/10/17 08:07:51;;;;;;;2.03;0.90;;;16.80;99.90;;;;;;5064721;28;20029;-83
2022/10/17 08:10:17;;;;;;;3.35;1.17;;;16.80;99.90;;;;;;5062841;28;20044;-78
2022/10/17 08:12:42;;;;;;;2.10;1.00;;;16.80;99.90;;;;;;5064608;28;20045;-76
2022/10/17 08:15:09;;;;;;;4.47;1.40;;;16.80;99.90;;;;;;5045387;28;20039;-76
2022/10/17 08:17:36;;;;;;;1.90;1.10;;;16.70;99.90;;;;;;5046622;28;20352;-77
2022/10/17 08:20:03;;;;;;;1.95;1.02;;;16.80;99.90;;;;;;5031373;28;20667;-77
2022/10/17 08:22:30;;;;;;;1.60;1.00;;;16.70;99.90;;;;;;5045055;28;20624;-85
2022/10/17 08:24:55;;;;;;;2.50;1.10;;;16.70;99.90;;;;;;5048480;28;20506;-78
2022/10/17 08:27:23;;;;;;;2.75;0.70;;;16.70;99.90;;;;;;5061824;28;20032;-76
2022/10/17 08:29:53;;;;;;;2.88;1.40;;;16.70;99.90;;;;;;5049800;28;20098;-77
2022/10/17 08:32:20;;;;;;;;;;;16.70;99.90;;;;;;5065052;28;20024;-77
2022/10/17 08:34:45;;;;;;;3.67;1.73;;;16.80;99.90;;;;;;5064171;28;20338;-78
2022/10/17 08:37:12;;;;;;;2.75;1.77;;;16.80;99.90;;;;;;5045607;28;20077;-80
2022/10/17 08:39:40;;;;;;;2.40;1.45;;;16.70;99.90;;;;;;5046486;28;20090;-78
2022/10/17 08:42:08;;;;;;;3.05;1.88;;;16.80;99.90;;;;;;5062577;28;20464;-81
2022/10/17 08:44:55;;;;;;;3.83;2.17;;;16.90;99.90;;;;;;5046564;28;20094;-81
2022/10/17 08:47:47;;;;;;;4.28;1.85;;;16.90;99.90;;;;;;5063325;28;20042;-78
2022/10/17 08:50:42;;;;;;;3.33;2.20;;;16.90;99.90;;;;;;5045798;28;20067;-85
2022/10/17 08:53:11;;;;;;;2.85;1.50;;;16.90;99.90;;;;;;5073874;28;20072;-76
2022/10/17 08:55:43;;;;;;;5.70;1.65;;;16.80;99.90;;;;;;5064204;28;20024;-77
2022/10/17 08:58:14;;;;;;;2.97;1.35;;;16.80;99.90;;;;;;5047505;28;20031;-83
2022/10/17 09:01:01;;;;;;;3.20;1.40;;;16.70;99.90;;;;;;5064625;28;20027;-81
2022/10/17 09:04:03;;;;;;;4.38;2.38;;;16.70;99.90;;;;;;5045453;28;20662;-78
2022/10/17 09:06:36;;;;;;;5.57;4.80;;;16.70;99.90;;;;;;5045111;28;20365;-82
2022/10/17 09:09:23;;;;;;;4.63;3.25;;;16.60;99.90;;;;;;5062812;28;20055;-80
2022/10/17 09:12:04;;;;;;;3.90;3.05;;;16.60;99.90;;;;;;5045973;28;20376;-82
2022/10/17 09:14:47;;;;;;;3.30;2.28;;;16.50;99.90;;;;;;5064019;28;20101;-77
2022/10/17 09:17:31;;;;;;;3.70;2.08;;;16.50;99.90;;;;;;5045100;28;20882;-79
2022/10/17 09:20:05;;;;;;;3.35;1.70;;;16.50;99.90;;;;;;5045545;28;20090;-86
2022/10/17 09:22:40;;;;;;;1.88;1.08;;;16.50;99.90;;;;;;5062814;28;20057;-78
2022/10/17 09:25:12;;;;;;;2.38;1.10;;;16.50;99.90;;;;;;5045885;28;20024;-81
2022/10/17 09:27:46;;;;;;;1.90;1.38;;;16.50;99.90;;;;;;5047922;28;20033;-80
2022/10/17 09:30:41;;;;;;;2.35;1.40;;;16.60;99.90;;;;;;5050798;28;20055;-78
2022/10/17 09:33:15;;;;;;;2.60;1.30;;;16.60;99.90;;;;;;5044849;28;20020;-77
2022/10/17 09:35:42;;;;;;;2.97;0.93;;;16.60;99.90;;;;;;5061636;28;20028;-80
2022/10/17 09:38:17;;;;;;;2.35;0.93;;;16.60;99.90;;;;;;5044850;28;20078;-77
2022/10/17 09:40:44;;;;;;;2.90;1.13;;;16.60;99.90;;;;;;5064301;28;20028;-85
2022/10/17 09:43:14;;;;;;;3.70;1.05;;;16.60;99.90;;;;;;5045278;28;20036;-76
2022/10/17 09:45:56;;;;;;;1.90;1.15;;;16.60;99.90;;;;;;5027438;28;20029;-80
2022/10/17 09:48:34;;;;;;;2.08;1.25;;;16.60;99.90;;;;;;5024021;28;20506;-77
2022/10/17 09:51:00;;;;;;;2.65;1.23;;;16.60;99.90;;;;;;5044916;28;20051;-81
2022/10/17 09:53:32;;;;;;;3.25;1.20;;;16.60;99.90;;;;;;5063368;28;20028;-80
2022/10/17 09:56:01;;;;;;;4.50;1.35;;;16.60;99.90;;;;;;5046255;28;20178;-85
2022/10/17 09:58:45;;;;;;;3.60;1.60;;;16.70;99.90;;;;;;5061330;28;20170;-86
2022/10/17 10:01:30;;;;;;;1.95;1.02;;;16.70;99.90;;;;;;5045065;28;20028;-77
2022/10/17 10:04:11;;;;;;;3.47;1.35;;;16.60;99.90;;;;;;5063745;28;20460;-77
2022/10/17 10:06:37;;;;;;;2.67;1.13;;;16.60;99.90;;;;;;5062191;28;20032;-79
2022/10/17 10:09:05;;;;;;;1.40;0.60;;;16.50;99.90;;;;;;5062335;28;20480;-80
2022/10/17 10:11:45;;;;;;;1.60;0.75;;;16.50;99.90;;;;;;5044873;28;20241;-78
2022/10/17 10:14:18;;;;;;;1.65;0.60;;;16.50;99.90;;;;;;5045784;28;20037;-77
2022/10/17 10:16:45;;;;;;;1.38;0.50;;;16.50;99.90;;;;;;5062916;28;20043;-78
2022/10/17 10:19:48;;;;;;;1.70;0.80;;;16.50;99.90;;;;;;5062307;28;20480;-77
2022/10/17 10:22:16;;;;;;;1.83;0.60;;;16.50;99.90;;;;;;5051377;28;20040;-79
2022/10/17 10:24:41;;;;;;;1.67;0.70;;;16.60;99.90;;;;;;5045035;28;22539;-78
2022/10/17 10:27:15;;;;;;;3.10;0.77;;;16.60;99.90;;;;;;5045892;28;20427;-78
2022/10/17 10:29:47;;;;;;;2.03;0.80;;;16.70;99.90;;;;;;5046782;28;20041;-84
2022/10/17 10:32:24;;;;;;;1.38;0.63;;;16.70;99.90;;;;;;5043775;28;20020;-83
2022/10/17 10:34:55;;;;;;;1.73;0.80;;;16.70;99.90;;;;;;5061277;28;20047;-83
2022/10/17 10:37:24;;;;;;;2.33;0.82;;;16.80;99.90;;;;;;5063835;28;20029;-76
2022/10/17 10:39:59;;;;;;;2.05;1.02;;;16.70;99.90;;;;;;5047717;28;20098;-78
2022/10/17 10:42:38;;;;;;;1.85;0.70;;;16.70;99.90;;;;;;5063238;28;20037;-85
2022/10/17 10:45:23;;;;;;;1.40;0.70;;;16.70;99.90;;;;;;5044406;28;20070;-83
2022/10/17 10:47:51;;;;;;;2.67;0.60;;;16.70;99.90;;;;;;5062034;28;20040;-81
2022/10/17 10:50:32;;;;;;;1.50;0.60;;;16.70;99.90;;;;;;5044137;28;20129;-77
2022/10/17 10:53:24;;;;;;;1.50;0.60;;;16.80;99.90;;;;;;5053659;28;20387;-78
2022/10/17 10:55:58;;;;;;;1.63;0.60;;;16.80;99.90;;;;;;5062347;28;20055;-78
2022/10/17 10:59:02;;;;;;;1.92;0.70;;;16.80;99.90;;;;;;5066542;28;20028;-85
2022/10/17 11:01:40;;;;;;;4.25;0.70;;;16.80;99.90;;;;;;5066489;28;20068;-81
2022/10/17 11:04:22;;;;;;;2.08;0.80;;;16.80;99.90;;;;;;5034643;28;20024;-78
2022/10/17 11:06:51;;;;;;;1.80;0.70;;;16.80;99.90;;;;;;5063724;28;20041;-80
2022/10/17 11:09:43;;;;;;;2.45;0.60;;;16.80;99.90;;;;;;5081555;28;20067;-76
2022/10/17 11:12:19;;;;;;;1.40;0.60;;;16.90;99.90;;;;;;5064001;28;20052;-85
2022/10/17 11:15:12;;;;;;;1.75;0.60;;;16.80;99.90;;;;;;5065950;28;20047;-81
2022/10/17 11:17:49;;;;;;;2.17;0.82;;;16.90;99.90;;;;;;5065783;28;20029;-78
2022/10/17 11:20:27;;;;;;;1.60;0.68;;;16.90;99.90;;;;;;5042661;28;20036;-77
2022/10/17 11:23:00;;;;;;;1.55;0.80;;;17.00;99.90;;;;;;5028714;28;20037;-77
2022/10/17 11:25:37;;;;;;;1.95;0.75;;;17.00;99.90;;;;;;5065878;28;20040;-77
2022/10/17 11:28:16;;;;;;;1.70;0.73;;;17.00;99.90;;;;;;5047297;28;20395;-77
2022/10/17 11:30:45;;;;;;;2.75;0.70;;;17.00;99.90;;;;;;5068015;28;20052;-77
2022/10/17 11:33:18;;;;;;;1.80;0.90;;;17.00;99.90;;;;;;5062420;28;20100;-76
2022/10/17 11:35:49;;;;;;;2.45;1.00;;;17.00;99.90;;;;;;5065696;28;20503;-77
2022/10/17 11:38:23;;;;;;;2.03;0.90;;;17.00;99.90;;;;;;5047511;28;20036;-79
2022/10/17 11:40:52;;;;;;;2.20;1.10;;;17.00;99.90;;;;;;5048962;28;20028;-83
2022/10/17 11:43:33;;;;;;;1.90;1.07;;;17.00;99.90;;;;;;5046459;28;20040;-77
2022/10/17 11:46:09;;;;;;;2.65;1.33;;;17.00;99.90;;;;;;5065765;28;20071;-77
2022/10/17 11:48:57;;;;;;;2.25;1.20;;;17.00;99.90;;;;;;5065921;28;20038;-85
2022/10/17 11:51:23;;;;;;;2.90;1.40;;;17.00;99.90;;;;;;5029593;28;20036;-77
2022/10/17 11:53:56;;;;;;;2.63;1.00;;;17.00;99.90;;;;;;5065405;28;20024;-85
2022/10/17 11:56:36;;;;;;;4.03;1.25;;;17.10;99.90;;;;;;5046831;28;20492;-78
2022/10/17 11:59:44;;;;;;;2.85;0.98;;;17.10;99.90;;;;;;5063663;28;20604;-77
2022/10/17 12:02:39;;;;;;;1.80;1.15;;;17.10;99.90;;;;;;5045949;28;20066;-77
2022/10/17 12:05:23;;;;;;;2.40;1.08;;;17.00;99.90;;;;;;5038029;28;20455;-84
2022/10/17 12:08:18;;;;;;;2.55;1.95;;;17.10;99.90;;;;;;5031058;28;20033;-78
2022/10/17 12:11:14;;;;;;;2.75;1.23;;;17.10;99.90;;;;;;5044849;28;20037;-77
2022/10/17 12:13:40;;;;;;;2.10;1.20;;;17.10;99.90;;;;;;5030196;28;20040;-78
2022/10/17 12:16:18;;;;;;;1.95;1.10;;;17.10;99.90;;;;;;5066008;28;20033;-84
2022/10/17 12:19:08;;;;;;;2.85;1.60;;;17.10;99.90;;;;;;5046272;28;20083;-84
2022/10/17 12:21:52;;;;;;;;;;;17.10;99.90;;;;;;5062927;28;20644;-77
2022/10/17 12:24:55;;;;;;;3.28;1.10;;;17.10;99.90;;;;;;5046289;28;19917;-77
2022/10/17 12:27:48;;;;;;;2.55;1.73;;;17.10;99.90;;;;;;5048115;28;20259;-85
2022/10/17 12:30:18;;;;;;;2.30;1.20;;;17.00;99.90;;;;;;5060610;28;20040;-80
2022/10/17 12:32:58;;;;;;;2.65;1.10;;;17.00;99.90;;;;;;5062047;28;20021;-78
2022/10/17 12:35:26;;;;;;;3.05;1.35;;;16.90;99.90;;;;;;5046192;28;20044;-77
2022/10/17 12:37:51;;;;;;;2.50;1.23;;;16.90;99.90;;;;;;5046200;28;20033;-77
2022/10/17 12:40:35;;;;;;;2.40;1.80;;;17.00;99.90;;;;;;5061876;28;20029;-83
2022/10/17 12:43:21;;;;;;;2.97;1.80;;;16.90;99.90;;;;;;5062037;28;20025;-77
2022/10/17 12:46:03;;;;;;;2.25;1.48;;;16.90;99.90;;;;;;5045810;28;20194;-77
2022/10/17 12:48:35;;;;;;;4.30;2.50;;;16.90;99.90;;;;;;5062340;28;20298;-84
2022/10/17 12:51:01;;;;;;;3.45;1.58;;;16.90;99.90;;;;;;5047026;28;20078;-77
2022/10/17 12:53:45;;;;;;;3.28;2.15;;;16.90;99.90;;;;;;5063137;28;20028;-77
2022/10/17 12:56:12;;;;;;;2.72;1.30;;;17.00;99.90;;;;;;5028954;28;20032;-79
2022/10/17 12:58:43;;;;;;;2.70;1.73;;;17.00;99.90;;;;;;5064348;28;20035;-80
2022/10/17 13:01:17;;;;;;;3.17;1.70;;;17.00;99.90;;;;;;5064118;28;20021;-76
2022/10/17 13:03:45;;;;;;;4.18;2.05;;;17.10;99.90;;;;;;5045331;28;20044;-77
2022/10/17 13:06:19;;;;;;;3.55;1.98;;;17.10;99.90;;;;;;5028558;28;20167;-78
2022/10/17 13:08:57;;;;;;;3.85;3.47;;;17.20;99.90;;;;;;5064669;28;20074;-76
2022/10/17 13:11:25;;;;;;;3.00;2.40;;;17.20;99.90;;;;;;5028003;28;20036;-80
2022/10/17 13:13:57;;;;;;;3.88;2.15;;;17.30;99.90;;;;;;5029066;28;20029;-77
2022/10/17 13:16:32;;;;;;;3.88;2.17;;;17.20;99.90;;;;;;5025496;28;20400;-77